CheckWX is a tool to help pilots better visualize weather data.  It is not intended as a substitute for an official pre-flight weather briefing.

22:34:04 UTC

KRQO METAR
El Reno Regional Airport
El Reno, Oklahoma, USA
Current

19 mins ago

KRQO 262215Z AUTO 17009KT CLR 19/05 A3028 RMK AO2 PWINO T01880055
Observed
Mar-26 @ 22:15 UTC
Wind
  • 170° at 9 KTS
Visibility
Cloud Levels
  • Clear skies
Temperature
19°C / 66°F
Dewpoint
C / 43°F
Humidity
43%
Altimeter
30.28" Hg
Pressure
1025.42 hPa
Previous

39 mins ago

KRQO 262155Z AUTO 11007KT CLR 19/05 A3029 RMK AO2 PWINO T01860055
Observed
Mar-26 @ 21:55 UTC
Wind
  • 110° at 7 KTS
Visibility
Cloud Levels
  • Clear skies
Temperature
19°C / 66°F
Dewpoint
C / 43°F
Humidity
43%
Altimeter
30.29" Hg
Pressure
1025.72 hPa
Previous

59 mins ago

KRQO 262135Z AUTO 16007KT CLR 18/05 A3029 RMK AO2 PWINO T01840049
Observed
Mar-26 @ 21:35 UTC
Wind
  • 160° at 7 KTS
Visibility
Cloud Levels
  • Clear skies
Temperature
18°C / 64°F
Dewpoint
C / 41°F
Humidity
43%
Altimeter
30.29" Hg
Pressure
1025.72 hPa